Walker Valley, New York
Current Conditions -  °F | °C
As of 11:16 AM on Tuesday 27 Jan 2015 (Local Time) from KMGJ Reporting Station
Light Snow Light Snow  
Wind Chill: 12°   Ceiling: 2100
Heat Index: 21°   Visibility: 1.7mi
Dew Point: 13°   Wind: 7mph
Humidity: 71%   Direction: 30°NNE
Pressure: 29.71"   Gusts: NA
Location:  41.63°N, 74.38°W
Report Text: KMGJ 271616Z AUTO 03006KT 1 3/4SM -SN BKN021 OVC030 M06/M11 A2971 RMK AO2 P0000 T10611106 TSNO
Loading
Personal Weather Stations






























Interactive Weather Map New forecast layout! Learn more

10-Day Weather Forecast

Advertisements
Track Severe Weather on mobile